sensor_id;sensor_type;location;lat;lon;timestamp;P1;durP1;ratioP1;P2;durP2;ratioP2
59089;SDS011;44878;50.102;18.982;2023-03-17T00:00:14;163.90;;;133.10;;
59089;SDS011;44878;50.102;18.982;2023-03-17T00:03:04;168.80;;;135.30;;
59089;SDS011;44878;50.102;18.982;2023-03-17T00:05:32;161.13;;;136.60;;
59089;SDS011;44878;50.102;18.982;2023-03-17T00:08:33;165.97;;;139.13;;
59089;SDS011;44878;50.102;18.982;2023-03-17T00:10:53;153.03;;;124.37;;
59089;SDS011;44878;50.102;18.982;2023-03-17T00:13:19;163.38;;;133.30;;
59089;SDS011;44878;50.102;18.982;2023-03-17T00:15:45;164.30;;;136.87;;
59089;SDS011;44878;50.102;18.982;2023-03-17T00:18:14;158.60;;;132.67;;
59089;SDS011;44878;50.102;18.982;2023-03-17T00:20:41;169.73;;;140.57;;
59089;SDS011;44878;50.102;18.982;2023-03-17T00:23:07;179.50;;;146.23;;
59089;SDS011;44878;50.102;18.982;2023-03-17T00:25:36;160.20;;;138.60;;
59089;SDS011;44878;50.102;18.982;2023-03-17T00:28:26;171.47;;;140.33;;
59089;SDS011;44878;50.102;18.982;2023-03-17T00:30:56;162.33;;;136.33;;
59089;SDS011;44878;50.102;18.982;2023-03-17T00:33:23;150.57;;;128.93;;
59089;SDS011;44878;50.102;18.982;2023-03-17T00:35:51;153.10;;;131.07;;
59089;SDS011;44878;50.102;18.982;2023-03-17T00:38:18;155.13;;;128.60;;
59089;SDS011;44878;50.102;18.982;2023-03-17T00:40:45;147.10;;;125.57;;
59089;SDS011;44878;50.102;18.982;2023-03-17T00:43:11;141.10;;;115.83;;
59089;SDS011;44878;50.102;18.982;2023-03-17T00:45:41;141.43;;;119.60;;
59089;SDS011;44878;50.102;18.982;2023-03-17T00:48:12;136.23;;;116.53;;
59089;SDS011;44878;50.102;18.982;2023-03-17T00:50:41;135.93;;;111.37;;
59089;SDS011;44878;50.102;18.982;2023-03-17T00:53:11;138.17;;;120.77;;
59089;SDS011;44878;50.102;18.982;2023-03-17T00:55:38;131.90;;;117.33;;
59089;SDS011;44878;50.102;18.982;2023-03-17T00:58:20;135.03;;;111.73;;
59089;SDS011;44878;50.102;18.982;2023-03-17T01:00:52;128.03;;;112.83;;
59089;SDS011;44878;50.102;18.982;2023-03-17T01:03:18;137.47;;;118.47;;
59089;SDS011;44878;50.102;18.982;2023-03-17T01:05:44;137.97;;;116.80;;
59089;SDS011;44878;50.102;18.982;2023-03-17T01:08:13;123.97;;;107.90;;
59089;SDS011;44878;50.102;18.982;2023-03-17T01:10:39;145.73;;;124.83;;
59089;SDS011;44878;50.102;18.982;2023-03-17T01:13:06;138.50;;;120.90;;
59089;SDS011;44878;50.102;18.982;2023-03-17T01:15:35;144.80;;;122.80;;
59089;SDS011;44878;50.102;18.982;2023-03-17T01:18:01;142.50;;;119.13;;
59089;SDS011;44878;50.102;18.982;2023-03-17T01:20:29;145.50;;;129.13;;
59089;SDS011;44878;50.102;18.982;2023-03-17T01:22:58;152.95;;;136.23;;
59089;SDS011;44878;50.102;18.982;2023-03-17T01:25:25;167.60;;;135.73;;
59089;SDS011;44878;50.102;18.982;2023-03-17T01:27:53;171.07;;;150.40;;
59089;SDS011;44878;50.102;18.982;2023-03-17T01:32:47;198.27;;;177.37;;
59089;SDS011;44878;50.102;18.982;2023-03-17T01:35:14;171.23;;;152.63;;
59089;SDS011;44878;50.102;18.982;2023-03-17T01:37:40;169.00;;;150.93;;
59089;SDS011;44878;50.102;18.982;2023-03-17T01:40:07;180.93;;;161.37;;
59089;SDS011;44878;50.102;18.982;2023-03-17T01:42:34;190.70;;;170.57;;
59089;SDS011;44878;50.102;18.982;2023-03-17T01:45:02;175.33;;;156.17;;
59089;SDS011;44878;50.102;18.982;2023-03-17T01:49:58;176.77;;;157.80;;
59089;SDS011;44878;50.102;18.982;2023-03-17T01:54:59;202.37;;;181.03;;
59089;SDS011;44878;50.102;18.982;2023-03-17T01:57:40;186.33;;;166.47;;
59089;SDS011;44878;50.102;18.982;2023-03-17T02:00:09;174.73;;;155.90;;
59089;SDS011;44878;50.102;18.982;2023-03-17T02:02:36;158.77;;;141.80;;
59089;SDS011;44878;50.102;18.982;2023-03-17T02:05:03;179.63;;;160.75;;
59089;SDS011;44878;50.102;18.982;2023-03-17T02:07:30;186.70;;;167.25;;
59089;SDS011;44878;50.102;18.982;2023-03-17T02:09:56;181.57;;;162.50;;
59089;SDS011;44878;50.102;18.982;2023-03-17T02:12:22;174.37;;;155.97;;
59089;SDS011;44878;50.102;18.982;2023-03-17T02:14:49;172.93;;;154.63;;
59089;SDS011;44878;50.102;18.982;2023-03-17T02:17:17;168.70;;;150.47;;
59089;SDS011;44878;50.102;18.982;2023-03-17T02:19:43;176.38;;;157.65;;
59089;SDS011;44878;50.102;18.982;2023-03-17T02:22:09;174.17;;;155.70;;
59089;SDS011;44878;50.102;18.982;2023-03-17T02:27:10;166.60;;;148.80;;
59089;SDS011;44878;50.102;18.982;2023-03-17T02:29:37;165.77;;;148.33;;
59089;SDS011;44878;50.102;18.982;2023-03-17T02:32:04;154.17;;;137.83;;
59089;SDS011;44878;50.102;18.982;2023-03-17T02:34:33;161.20;;;143.93;;
59089;SDS011;44878;50.102;18.982;2023-03-17T02:36:59;165.70;;;148.00;;
59089;SDS011;44878;50.102;18.982;2023-03-17T02:39:25;177.70;;;159.27;;
59089;SDS011;44878;50.102;18.982;2023-03-17T02:41:51;176.50;;;157.83;;
59089;SDS011;44878;50.102;18.982;2023-03-17T02:44:18;185.37;;;165.70;;
59089;SDS011;44878;50.102;18.982;2023-03-17T02:46:43;167.37;;;149.70;;
59089;SDS011;44878;50.102;18.982;2023-03-17T02:49:10;175.63;;;156.87;;
59089;SDS011;44878;50.102;18.982;2023-03-17T02:51:36;165.23;;;147.83;;
59089;SDS011;44878;50.102;18.982;2023-03-17T02:54:06;159.10;;;142.07;;
59089;SDS011;44878;50.102;18.982;2023-03-17T02:56:32;155.50;;;138.93;;
59089;SDS011;44878;50.102;18.982;2023-03-17T02:58:58;169.10;;;150.90;;
59089;SDS011;44878;50.102;18.982;2023-03-17T03:01:23;172.17;;;153.97;;
59089;SDS011;44878;50.102;18.982;2023-03-17T03:03:51;158.70;;;141.77;;
59089;SDS011;44878;50.102;18.982;2023-03-17T03:06:17;156.33;;;139.73;;
59089;SDS011;44878;50.102;18.982;2023-03-17T03:08:43;159.77;;;142.53;;
59089;SDS011;44878;50.102;18.982;2023-03-17T03:11:09;167.93;;;149.97;;
59089;SDS011;44878;50.102;18.982;2023-03-17T03:13:35;155.37;;;138.83;;
59089;SDS011;44878;50.102;18.982;2023-03-17T03:16:02;143.40;;;126.73;;
59089;SDS011;44878;50.102;18.982;2023-03-17T03:18:29;139.23;;;124.28;;
59089;SDS011;44878;50.102;18.982;2023-03-17T03:20:54;141.60;;;126.10;;
59089;SDS011;44878;50.102;18.982;2023-03-17T03:23:21;139.00;;;124.10;;
59089;SDS011;44878;50.102;18.982;2023-03-17T03:25:46;139.40;;;124.80;;
59089;SDS011;44878;50.102;18.982;2023-03-17T03:28:15;139.37;;;124.43;;
59089;SDS011;44878;50.102;18.982;2023-03-17T03:30:41;140.67;;;125.93;;
59089;SDS011;44878;50.102;18.982;2023-03-17T03:35:34;134.07;;;119.60;;
59089;SDS011;44878;50.102;18.982;2023-03-17T03:38:00;141.03;;;125.97;;
59089;SDS011;44878;50.102;18.982;2023-03-17T03:40:26;143.83;;;128.03;;
59089;SDS011;44878;50.102;18.982;2023-03-17T03:42:52;143.80;;;128.40;;
59089;SDS011;44878;50.102;18.982;2023-03-17T03:45:18;146.13;;;130.90;;
59089;SDS011;44878;50.102;18.982;2023-03-17T03:47:44;143.57;;;128.03;;
59089;SDS011;44878;50.102;18.982;2023-03-17T03:50:10;162.67;;;145.43;;
59089;SDS011;44878;50.102;18.982;2023-03-17T03:52:36;172.13;;;153.83;;
59089;SDS011;44878;50.102;18.982;2023-03-17T03:55:02;180.30;;;161.70;;
59089;SDS011;44878;50.102;18.982;2023-03-17T03:57:31;191.17;;;171.70;;
59089;SDS011;44878;50.102;18.982;2023-03-17T03:59:57;173.77;;;155.37;;
59089;SDS011;44878;50.102;18.982;2023-03-17T04:02:23;167.47;;;149.83;;
59089;SDS011;44878;50.102;18.982;2023-03-17T04:04:49;175.03;;;156.83;;
59089;SDS011;44878;50.102;18.982;2023-03-17T04:07:14;171.80;;;153.53;;
59089;SDS011;44878;50.102;18.982;2023-03-17T04:09:40;176.20;;;157.80;;
59089;SDS011;44878;50.102;18.982;2023-03-17T04:12:07;189.40;;;169.77;;
59089;SDS011;44878;50.102;18.982;2023-03-17T04:14:33;179.53;;;160.67;;
59089;SDS011;44878;50.102;18.982;2023-03-17T04:16:59;165.60;;;148.03;;
59089;SDS011;44878;50.102;18.982;2023-03-17T04:19:24;168.17;;;150.17;;
59089;SDS011;44878;50.102;18.982;2023-03-17T04:21:51;188.70;;;169.27;;
59089;SDS011;44878;50.102;18.982;2023-03-17T04:24:16;189.87;;;170.27;;
59089;SDS011;44878;50.102;18.982;2023-03-17T04:26:42;188.20;;;168.90;;
59089;SDS011;44878;50.102;18.982;2023-03-17T04:29:08;180.33;;;161.77;;
59089;SDS011;44878;50.102;18.982;2023-03-17T04:31:35;179.75;;;160.90;;
59089;SDS011;44878;50.102;18.982;2023-03-17T04:34:02;183.20;;;163.93;;
59089;SDS011;44878;50.102;18.982;2023-03-17T04:36:28;202.30;;;181.33;;
59089;SDS011;44878;50.102;18.982;2023-03-17T04:38:53;196.70;;;176.67;;
59089;SDS011;44878;50.102;18.982;2023-03-17T04:41:19;184.47;;;165.50;;
59089;SDS011;44878;50.102;18.982;2023-03-17T04:43:45;178.50;;;160.07;;
59089;SDS011;44878;50.102;18.982;2023-03-17T04:46:11;160.53;;;143.63;;
59089;SDS011;44878;50.102;18.982;2023-03-17T04:48:37;191.77;;;171.63;;
59089;SDS011;44878;50.102;18.982;2023-03-17T04:51:03;190.07;;;170.47;;
59089;SDS011;44878;50.102;18.982;2023-03-17T04:53:29;166.27;;;148.97;;
59089;SDS011;44878;50.102;18.982;2023-03-17T04:55:55;160.53;;;143.90;;
59089;SDS011;44878;50.102;18.982;2023-03-17T04:58:21;154.23;;;138.37;;
59089;SDS011;44878;50.102;18.982;2023-03-17T05:00:46;149.97;;;134.27;;
59089;SDS011;44878;50.102;18.982;2023-03-17T05:03:13;156.10;;;139.70;;
59089;SDS011;44878;50.102;18.982;2023-03-17T05:05:39;149.93;;;134.20;;
59089;SDS011;44878;50.102;18.982;2023-03-17T05:08:05;155.00;;;139.13;;
59089;SDS011;44878;50.102;18.982;2023-03-17T05:10:31;139.57;;;124.80;;
59089;SDS011;44878;50.102;18.982;2023-03-17T05:12:56;137.57;;;122.93;;
59089;SDS011;44878;50.102;18.982;2023-03-17T05:15:22;140.17;;;125.50;;
59089;SDS011;44878;50.102;18.982;2023-03-17T05:17:48;128.13;;;114.83;;
59089;SDS011;44878;50.102;18.982;2023-03-17T05:20:14;112.90;;;100.93;;
59089;SDS011;44878;50.102;18.982;2023-03-17T05:22:40;100.60;;;89.57;;
59089;SDS011;44878;50.102;18.982;2023-03-17T05:25:06;88.93;;;79.30;;
59089;SDS011;44878;50.102;18.982;2023-03-17T05:27:32;87.60;;;77.77;;
59089;SDS011;44878;50.102;18.982;2023-03-17T05:29:58;87.60;;;78.00;;
59089;SDS011;44878;50.102;18.982;2023-03-17T05:32:24;76.27;;;67.67;;
59089;SDS011;44878;50.102;18.982;2023-03-17T05:34:50;77.53;;;68.20;;
59089;SDS011;44878;50.102;18.982;2023-03-17T05:37:16;73.57;;;65.57;;
59089;SDS011;44878;50.102;18.982;2023-03-17T05:39:42;79.33;;;67.57;;
59089;SDS011;44878;50.102;18.982;2023-03-17T05:42:08;77.67;;;67.40;;
59089;SDS011;44878;50.102;18.982;2023-03-17T05:44:34;77.00;;;62.67;;
59089;SDS011;44878;50.102;18.982;2023-03-17T05:46:59;70.67;;;61.57;;
59089;SDS011;44878;50.102;18.982;2023-03-17T05:49:26;68.83;;;58.37;;
59089;SDS011;44878;50.102;18.982;2023-03-17T05:51:53;63.90;;;56.20;;
59089;SDS011;44878;50.102;18.982;2023-03-17T05:54:20;69.00;;;60.08;;
59089;SDS011;44878;50.102;18.982;2023-03-17T05:56:45;65.03;;;56.37;;
59089;SDS011;44878;50.102;18.982;2023-03-17T05:59:12;68.17;;;55.73;;
59089;SDS011;44878;50.102;18.982;2023-03-17T06:01:40;63.00;;;53.07;;
59089;SDS011;44878;50.102;18.982;2023-03-17T06:04:06;61.73;;;54.53;;
59089;SDS011;44878;50.102;18.982;2023-03-17T06:06:32;60.90;;;53.57;;
59089;SDS011;44878;50.102;18.982;2023-03-17T06:08:59;59.53;;;49.20;;
59089;SDS011;44878;50.102;18.982;2023-03-17T06:11:25;60.90;;;50.17;;
59089;SDS011;44878;50.102;18.982;2023-03-17T06:13:51;61.77;;;50.30;;
59089;SDS011;44878;50.102;18.982;2023-03-17T06:16:17;55.90;;;47.43;;
59089;SDS011;44878;50.102;18.982;2023-03-17T06:18:44;58.22;;;50.15;;
59089;SDS011;44878;50.102;18.982;2023-03-17T06:21:13;111.35;;;94.68;;
59089;SDS011;44878;50.102;18.982;2023-03-17T06:23:39;52.92;;;45.63;;
59089;SDS011;44878;50.102;18.982;2023-03-17T06:26:05;57.10;;;47.70;;
59089;SDS011;44878;50.102;18.982;2023-03-17T06:28:31;55.28;;;46.47;;
59089;SDS011;44878;50.102;18.982;2023-03-17T06:30:57;52.10;;;44.55;;
59089;SDS011;44878;50.102;18.982;2023-03-17T06:33:23;55.35;;;46.20;;
59089;SDS011;44878;50.102;18.982;2023-03-17T06:35:49;52.45;;;44.58;;
59089;SDS011;44878;50.102;18.982;2023-03-17T06:38:16;56.13;;;45.07;;
59089;SDS011;44878;50.102;18.982;2023-03-17T06:40:42;54.83;;;44.33;;
59089;SDS011;44878;50.102;18.982;2023-03-17T06:43:08;57.85;;;45.15;;
59089;SDS011;44878;50.102;18.982;2023-03-17T06:45:33;54.35;;;44.42;;
59089;SDS011;44878;50.102;18.982;2023-03-17T06:48:00;51.42;;;44.95;;
59089;SDS011;44878;50.102;18.982;2023-03-17T06:50:26;52.10;;;42.97;;
59089;SDS011;44878;50.102;18.982;2023-03-17T06:52:53;49.38;;;41.00;;
59089;SDS011;44878;50.102;18.982;2023-03-17T06:55:18;50.30;;;42.90;;
59089;SDS011;44878;50.102;18.982;2023-03-17T06:57:45;47.08;;;41.92;;
59089;SDS011;44878;50.102;18.982;2023-03-17T07:00:11;46.78;;;37.97;;
59089;SDS011;44878;50.102;18.982;2023-03-17T07:02:38;46.92;;;40.85;;
59089;SDS011;44878;50.102;18.982;2023-03-17T07:05:04;44.17;;;38.60;;
59089;SDS011;44878;50.102;18.982;2023-03-17T07:07:34;46.70;;;39.45;;
59089;SDS011;44878;50.102;18.982;2023-03-17T07:10:03;47.75;;;39.25;;
59089;SDS011;44878;50.102;18.982;2023-03-17T07:12:30;48.42;;;39.40;;
59089;SDS011;44878;50.102;18.982;2023-03-17T07:14:58;43.63;;;38.88;;
59089;SDS011;44878;50.102;18.982;2023-03-17T07:17:24;47.33;;;39.25;;
59089;SDS011;44878;50.102;18.982;2023-03-17T07:19:53;45.10;;;37.72;;
59089;SDS011;44878;50.102;18.982;2023-03-17T07:22:19;45.03;;;38.35;;
59089;SDS011;44878;50.102;18.982;2023-03-17T07:24:45;45.08;;;37.25;;
59089;SDS011;44878;50.102;18.982;2023-03-17T07:27:14;42.50;;;36.60;;
59089;SDS011;44878;50.102;18.982;2023-03-17T07:29:40;38.92;;;31.92;;
59089;SDS011;44878;50.102;18.982;2023-03-17T07:32:06;41.15;;;35.00;;
59089;SDS011;44878;50.102;18.982;2023-03-17T07:34:34;35.97;;;31.92;;
59089;SDS011;44878;50.102;18.982;2023-03-17T07:37:00;44.83;;;34.35;;
59089;SDS011;44878;50.102;18.982;2023-03-17T07:39:26;46.13;;;35.38;;
59089;SDS011;44878;50.102;18.982;2023-03-17T07:41:53;37.88;;;33.05;;
59089;SDS011;44878;50.102;18.982;2023-03-17T07:44:21;37.33;;;32.08;;
59089;SDS011;44878;50.102;18.982;2023-03-17T07:46:48;37.83;;;32.20;;
59089;SDS011;44878;50.102;18.982;2023-03-17T07:49:13;40.88;;;31.63;;
59089;SDS011;44878;50.102;18.982;2023-03-17T07:51:39;34.47;;;30.77;;
59089;SDS011;44878;50.102;18.982;2023-03-17T07:54:11;38.28;;;33.60;;
59089;SDS011;44878;50.102;18.982;2023-03-17T07:56:37;36.15;;;30.98;;
59089;SDS011;44878;50.102;18.982;2023-03-17T07:59:03;34.30;;;30.00;;
59089;SDS011;44878;50.102;18.982;2023-03-17T08:01:31;33.20;;;29.63;;
59089;SDS011;44878;50.102;18.982;2023-03-17T08:03:57;37.03;;;29.83;;
59089;SDS011;44878;50.102;18.982;2023-03-17T08:06:23;36.15;;;31.63;;
59089;SDS011;44878;50.102;18.982;2023-03-17T08:08:50;35.25;;;30.50;;
59089;SDS011;44878;50.102;18.982;2023-03-17T08:11:16;35.10;;;29.65;;
59089;SDS011;44878;50.102;18.982;2023-03-17T08:13:42;35.15;;;29.55;;
59089;SDS011;44878;50.102;18.982;2023-03-17T08:16:08;32.65;;;29.08;;
59089;SDS011;44878;50.102;18.982;2023-03-17T08:18:33;34.25;;;28.90;;
59089;SDS011;44878;50.102;18.982;2023-03-17T08:21:00;31.63;;;28.23;;
59089;SDS011;44878;50.102;18.982;2023-03-17T08:23:26;34.72;;;31.02;;
59089;SDS011;44878;50.102;18.982;2023-03-17T08:25:56;34.65;;;29.73;;
59089;SDS011;44878;50.102;18.982;2023-03-17T08:28:22;32.40;;;27.40;;
59089;SDS011;44878;50.102;18.982;2023-03-17T08:30:48;31.33;;;27.77;;
59089;SDS011;44878;50.102;18.982;2023-03-17T08:33:14;32.20;;;26.88;;
59089;SDS011;44878;50.102;18.982;2023-03-17T08:35:41;42.38;;;27.95;;
59089;SDS011;44878;50.102;18.982;2023-03-17T08:38:07;28.13;;;25.23;;
59089;SDS011;44878;50.102;18.982;2023-03-17T08:40:34;28.10;;;23.63;;
59089;SDS011;44878;50.102;18.982;2023-03-17T08:43:01;29.33;;;25.02;;
59089;SDS011;44878;50.102;18.982;2023-03-17T08:45:27;27.27;;;22.17;;
59089;SDS011;44878;50.102;18.982;2023-03-17T08:47:56;26.67;;;21.15;;
59089;SDS011;44878;50.102;18.982;2023-03-17T08:50:22;26.85;;;22.27;;
59089;SDS011;44878;50.102;18.982;2023-03-17T08:52:49;22.92;;;18.73;;
59089;SDS011;44878;50.102;18.982;2023-03-17T08:55:16;19.42;;;17.02;;
59089;SDS011;44878;50.102;18.982;2023-03-17T08:57:42;20.65;;;17.45;;
59089;SDS011;44878;50.102;18.982;2023-03-17T09:00:10;20.20;;;17.15;;
59089;SDS011;44878;50.102;18.982;2023-03-17T09:02:40;17.88;;;15.35;;
59089;SDS011;44878;50.102;18.982;2023-03-17T09:05:08;18.55;;;16.33;;
59089;SDS011;44878;50.102;18.982;2023-03-17T09:07:35;20.45;;;16.33;;
59089;SDS011;44878;50.102;18.982;2023-03-17T09:10:03;20.35;;;15.55;;
59089;SDS011;44878;50.102;18.982;2023-03-17T09:12:29;19.50;;;15.73;;
59089;SDS011;44878;50.102;18.982;2023-03-17T09:14:55;18.95;;;14.90;;
59089;SDS011;44878;50.102;18.982;2023-03-17T09:17:22;15.60;;;13.68;;
59089;SDS011;44878;50.102;18.982;2023-03-17T09:19:48;19.88;;;16.10;;
59089;SDS011;44878;50.102;18.982;2023-03-17T09:22:14;18.00;;;14.65;;
59089;SDS011;44878;50.102;18.982;2023-03-17T09:24:41;19.67;;;15.18;;
59089;SDS011;44878;50.102;18.982;2023-03-17T09:27:06;19.13;;;16.13;;
59089;SDS011;44878;50.102;18.982;2023-03-17T09:29:33;20.30;;;14.52;;
59089;SDS011;44878;50.102;18.982;2023-03-17T09:32:01;24.30;;;16.02;;
59089;SDS011;44878;50.102;18.982;2023-03-17T09:34:27;19.80;;;15.65;;
59089;SDS011;44878;50.102;18.982;2023-03-17T09:36:54;20.92;;;15.75;;
59089;SDS011;44878;50.102;18.982;2023-03-17T09:39:20;17.85;;;13.27;;
59089;SDS011;44878;50.102;18.982;2023-03-17T09:49:57;17.40;;;13.68;;
59089;SDS011;44878;50.102;18.982;2023-03-17T09:52:29;14.15;;;11.45;;
59089;SDS011;44878;50.102;18.982;2023-03-17T09:54:56;17.63;;;11.52;;
59089;SDS011;44878;50.102;18.982;2023-03-17T09:57:26;17.13;;;11.73;;
59089;SDS011;44878;50.102;18.982;2023-03-17T10:00:02;16.75;;;12.23;;
59089;SDS011;44878;50.102;18.982;2023-03-17T10:02:31;16.83;;;13.03;;
59089;SDS011;44878;50.102;18.982;2023-03-17T10:05:43;14.85;;;11.68;;
59089;SDS011;44878;50.102;18.982;2023-03-17T10:10:15;13.80;;;9.75;;
59089;SDS011;44878;50.102;18.982;2023-03-17T10:15:24;13.10;;;8.95;;
59089;SDS011;44878;50.102;18.982;2023-03-17T10:17:54;12.25;;;8.77;;
59089;SDS011;44878;50.102;18.982;2023-03-17T10:20:27;12.10;;;8.60;;
59089;SDS011;44878;50.102;18.982;2023-03-17T10:23:13;10.70;;;8.30;;
59089;SDS011;44878;50.102;18.982;2023-03-17T10:25:40;11.25;;;7.85;;
59089;SDS011;44878;50.102;18.982;2023-03-17T10:30:48;11.07;;;8.05;;
59089;SDS011;44878;50.102;18.982;2023-03-17T10:33:14;12.90;;;9.07;;
59089;SDS011;44878;50.102;18.982;2023-03-17T10:35:40;12.25;;;8.57;;
59089;SDS011;44878;50.102;18.982;2023-03-17T10:40:45;11.77;;;7.93;;
59089;SDS011;44878;50.102;18.982;2023-03-17T10:43:19;13.27;;;9.77;;
59089;SDS011;44878;50.102;18.982;2023-03-17T10:46:15;19.85;;;17.83;;
59089;SDS011;44878;50.102;18.982;2023-03-17T10:48:36;13.70;;;10.07;;
59089;SDS011;44878;50.102;18.982;2023-03-17T10:51:07;11.73;;;8.43;;
59089;SDS011;44878;50.102;18.982;2023-03-17T10:53:37;13.13;;;7.93;;
59089;SDS011;44878;50.102;18.982;2023-03-17T10:56:07;11.20;;;7.88;;
59089;SDS011;44878;50.102;18.982;2023-03-17T11:01:02;15.73;;;8.65;;
59089;SDS011;44878;50.102;18.982;2023-03-17T11:03:29;12.90;;;8.10;;
59089;SDS011;44878;50.102;18.982;2023-03-17T11:08:21;13.50;;;9.85;;
59089;SDS011;44878;50.102;18.982;2023-03-17T11:10:52;16.25;;;10.90;;
59089;SDS011;44878;50.102;18.982;2023-03-17T11:13:18;11.38;;;8.70;;
59089;SDS011;44878;50.102;18.982;2023-03-17T11:15:45;10.93;;;7.93;;
59089;SDS011;44878;50.102;18.982;2023-03-17T11:18:15;12.13;;;8.77;;
59089;SDS011;44878;50.102;18.982;2023-03-17T11:20:45;9.95;;;7.22;;
59089;SDS011;44878;50.102;18.982;2023-03-17T11:25:44;11.65;;;7.43;;
59089;SDS011;44878;50.102;18.982;2023-03-17T11:28:18;13.02;;;8.02;;
59089;SDS011;44878;50.102;18.982;2023-03-17T11:30:53;11.70;;;8.07;;
59089;SDS011;44878;50.102;18.982;2023-03-17T11:33:32;9.90;;;7.38;;
59089;SDS011;44878;50.102;18.982;2023-03-17T11:36:42;10.50;;;7.40;;
59089;SDS011;44878;50.102;18.982;2023-03-17T11:43:52;12.00;;;6.65;;
59089;SDS011;44878;50.102;18.982;2023-03-17T11:46:25;9.52;;;6.75;;
59089;SDS011;44878;50.102;18.982;2023-03-17T11:56:53;10.98;;;6.68;;
59089;SDS011;44878;50.102;18.982;2023-03-17T11:59:24;10.07;;;6.85;;
59089;SDS011;44878;50.102;18.982;2023-03-17T12:02:02;11.40;;;7.80;;
59089;SDS011;44878;50.102;18.982;2023-03-17T12:04:35;10.93;;;7.97;;
59089;SDS011;44878;50.102;18.982;2023-03-17T12:07:05;14.48;;;11.05;;
59089;SDS011;44878;50.102;18.982;2023-03-17T12:09:43;12.18;;;8.00;;
59089;SDS011;44878;50.102;18.982;2023-03-17T12:12:14;11.35;;;8.30;;
59089;SDS011;44878;50.102;18.982;2023-03-17T12:14:44;16.33;;;8.85;;
59089;SDS011;44878;50.102;18.982;2023-03-17T12:17:24;11.73;;;6.93;;
59089;SDS011;44878;50.102;18.982;2023-03-17T12:20:02;12.82;;;7.60;;
59089;SDS011;44878;50.102;18.982;2023-03-17T12:22:53;13.45;;;8.27;;
59089;SDS011;44878;50.102;18.982;2023-03-17T12:27:51;11.77;;;8.05;;
59089;SDS011;44878;50.102;18.982;2023-03-17T12:30:24;11.02;;;7.65;;
59089;SDS011;44878;50.102;18.982;2023-03-17T12:35:37;13.90;;;8.55;;
59089;SDS011;44878;50.102;18.982;2023-03-17T12:38:06;12.75;;;7.57;;
59089;SDS011;44878;50.102;18.982;2023-03-17T12:41:01;12.60;;;8.07;;
59089;SDS011;44878;50.102;18.982;2023-03-17T12:45:55;11.38;;;8.20;;
59089;SDS011;44878;50.102;18.982;2023-03-17T12:48:32;13.85;;;8.25;;
59089;SDS011;44878;50.102;18.982;2023-03-17T12:53:36;11.70;;;8.68;;
59089;SDS011;44878;50.102;18.982;2023-03-17T12:56:19;12.30;;;9.00;;
59089;SDS011;44878;50.102;18.982;2023-03-17T12:58:50;10.55;;;8.52;;
59089;SDS011;44878;50.102;18.982;2023-03-17T13:03:59;11.57;;;8.32;;
59089;SDS011;44878;50.102;18.982;2023-03-17T13:06:27;12.07;;;8.88;;
59089;SDS011;44878;50.102;18.982;2023-03-17T13:08:53;12.82;;;9.02;;
59089;SDS011;44878;50.102;18.982;2023-03-17T13:11:27;14.75;;;9.45;;
59089;SDS011;44878;50.102;18.982;2023-03-17T13:16:33;11.23;;;8.32;;
59089;SDS011;44878;50.102;18.982;2023-03-17T13:19:10;13.45;;;8.73;;
59089;SDS011;44878;50.102;18.982;2023-03-17T13:21:37;14.27;;;8.43;;
59089;SDS011;44878;50.102;18.982;2023-03-17T13:26:53;11.60;;;7.65;;
59089;SDS011;44878;50.102;18.982;2023-03-17T13:29:23;10.07;;;7.55;;
59089;SDS011;44878;50.102;18.982;2023-03-17T13:31:49;10.57;;;7.97;;
59089;SDS011;44878;50.102;18.982;2023-03-17T13:34:16;11.55;;;7.70;;
59089;SDS011;44878;50.102;18.982;2023-03-17T13:37:12;13.80;;;8.87;;
59089;SDS011;44878;50.102;18.982;2023-03-17T13:42:21;11.38;;;7.93;;
59089;SDS011;44878;50.102;18.982;2023-03-17T13:45:48;10.68;;;7.57;;
59089;SDS011;44878;50.102;18.982;2023-03-17T13:47:43;11.20;;;6.65;;
59089;SDS011;44878;50.102;18.982;2023-03-17T13:50:14;8.60;;;5.65;;
59089;SDS011;44878;50.102;18.982;2023-03-17T13:52:47;8.70;;;5.63;;
59089;SDS011;44878;50.102;18.982;2023-03-17T13:57:53;9.35;;;5.53;;
59089;SDS011;44878;50.102;18.982;2023-03-17T14:00:25;8.73;;;5.50;;
59089;SDS011;44878;50.102;18.982;2023-03-17T14:03:00;7.45;;;5.03;;
59089;SDS011;44878;50.102;18.982;2023-03-17T14:05:29;7.30;;;5.35;;
59089;SDS011;44878;50.102;18.982;2023-03-17T14:10:23;7.70;;;5.25;;
59089;SDS011;44878;50.102;18.982;2023-03-17T14:18:17;7.95;;;5.70;;
59089;SDS011;44878;50.102;18.982;2023-03-17T14:20:54;11.25;;;5.60;;
59089;SDS011;44878;50.102;18.982;2023-03-17T14:23:21;8.85;;;5.47;;
59089;SDS011;44878;50.102;18.982;2023-03-17T14:25:47;9.38;;;5.53;;
59089;SDS011;44878;50.102;18.982;2023-03-17T14:28:18;8.93;;;5.68;;
59089;SDS011;44878;50.102;18.982;2023-03-17T14:30:53;11.90;;;5.50;;
59089;SDS011;44878;50.102;18.982;2023-03-17T14:33:21;8.90;;;4.93;;
59089;SDS011;44878;50.102;18.982;2023-03-17T14:35:49;10.02;;;6.00;;
59089;SDS011;44878;50.102;18.982;2023-03-17T14:38:28;9.68;;;7.32;;
59089;SDS011;44878;50.102;18.982;2023-03-17T14:41:02;11.20;;;7.55;;
59089;SDS011;44878;50.102;18.982;2023-03-17T14:43:29;11.20;;;7.20;;
59089;SDS011;44878;50.102;18.982;2023-03-17T14:45:59;10.32;;;7.13;;
59089;SDS011;44878;50.102;18.982;2023-03-17T14:48:26;11.02;;;6.20;;
59089;SDS011;44878;50.102;18.982;2023-03-17T14:53:18;8.10;;;5.78;;
59089;SDS011;44878;50.102;18.982;2023-03-17T14:55:45;7.20;;;5.20;;
59089;SDS011;44878;50.102;18.982;2023-03-17T15:00:44;8.00;;;5.20;;
59089;SDS011;44878;50.102;18.982;2023-03-17T15:03:20;7.30;;;4.30;;
59089;SDS011;44878;50.102;18.982;2023-03-17T15:05:47;7.63;;;5.10;;
59089;SDS011;44878;50.102;18.982;2023-03-17T15:11:01;8.30;;;5.55;;
59089;SDS011;44878;50.102;18.982;2023-03-17T15:13:28;13.85;;;8.30;;
59089;SDS011;44878;50.102;18.982;2023-03-17T15:15:57;10.80;;;6.90;;
59089;SDS011;44878;50.102;18.982;2023-03-17T15:18:28;9.60;;;7.25;;
59089;SDS011;44878;50.102;18.982;2023-03-17T15:20:54;12.43;;;8.35;;
59089;SDS011;44878;50.102;18.982;2023-03-17T15:23:21;10.63;;;7.03;;
59089;SDS011;44878;50.102;18.982;2023-03-17T15:25:51;11.30;;;7.32;;
59089;SDS011;44878;50.102;18.982;2023-03-17T15:28:20;9.73;;;6.95;;
59089;SDS011;44878;50.102;18.982;2023-03-17T15:30:48;9.80;;;7.25;;
59089;SDS011;44878;50.102;18.982;2023-03-17T15:33:21;11.20;;;7.30;;
59089;SDS011;44878;50.102;18.982;2023-03-17T15:35:48;9.82;;;7.10;;
59089;SDS011;44878;50.102;18.982;2023-03-17T15:38:13;12.10;;;7.38;;
59089;SDS011;44878;50.102;18.982;2023-03-17T15:40:40;10.27;;;6.57;;